Time;durP1;ratioP1;P1;durP2;ratioP2;P2;SDS_P1;SDS_P2;PMS_P1;PMS_P2;Temp;Humidity;BMP_temperature;BMP_pressure;BME280_temperature;BME280_humidity;BME280_pressure;Samples;Min_cycle;Max_cycle;Signal;HPM_P1;HPM_P2
2022/11/20 00:01:30;;;;;;;29.60;12.68;;;;;;;-3.06;100.00;101363.09;5005624;28;20030;-78
2022/11/20 00:04:00;;;;;;;28.80;12.23;;;;;;;-3.08;100.00;101352.91;5004943;28;20021;-78
2022/11/20 00:06:27;;;;;;;29.45;12.05;;;;;;;-3.08;100.00;101357.09;5009896;28;20018;-78
2022/11/20 00:08:55;;;;;;;30.08;12.35;;;;;;;-3.14;100.00;101351.81;5005163;28;20029;-78
2022/11/20 00:11:22;;;;;;;31.40;12.57;;;;;;;-3.19;100.00;101360.06;5004686;28;20480;-78
2022/11/20 00:13:50;;;;;;;32.15;12.23;;;;;;;-3.21;100.00;101353.22;5001196;28;20108;-77
2022/11/20 00:16:18;;;;;;;33.03;13.18;;;;;;;-3.24;100.00;101353.97;5006106;28;20046;-77
2022/11/20 00:18:44;;;;;;;32.03;12.65;;;;;;;-3.25;100.00;101354.75;5002319;28;20492;-77
2022/11/20 00:21:15;;;;;;;31.45;12.30;;;;;;;-3.32;100.00;101339.25;5004240;28;20066;-77
2022/11/20 00:23:41;;;;;;;31.48;13.00;;;;;;;-3.29;100.00;101341.91;5004761;28;20454;-77
2022/11/20 00:26:09;;;;;;;32.42;13.00;;;;;;;-3.32;100.00;101347.72;4997692;28;20559;-77
2022/11/20 00:28:34;;;;;;;36.28;13.63;;;;;;;-3.37;100.00;101349.19;5006155;28;20091;-77
2022/11/20 00:31:13;;;;;;;33.30;13.57;;;;;;;-3.39;100.00;101355.88;5003062;28;20037;-77
2022/11/20 00:33:39;;;;;;;30.95;12.55;;;;;;;-3.35;100.00;101336.59;5005973;28;20061;-77
2022/11/20 00:36:08;;;;;;;34.55;13.27;;;;;;;-3.33;100.00;101340.03;5002263;28;20073;-77
2022/11/20 00:38:34;;;;;;;32.75;13.15;;;;;;;-3.35;100.00;101337.47;5004715;28;20037;-77
2022/11/20 00:41:02;;;;;;;31.83;13.38;;;;;;;-3.31;100.00;101340.97;4987514;28;20029;-77
2022/11/20 00:43:27;;;;;;;31.25;13.15;;;;;;;-3.29;100.00;101342.78;5005000;28;20030;-77
2022/11/20 00:46:00;;;;;;;32.63;13.60;;;;;;;-3.24;100.00;101346.34;5003629;28;20147;-77
2022/11/20 00:48:26;;;;;;;30.63;12.75;;;;;;;-3.27;100.00;101336.06;5005302;28;20546;-77
2022/11/20 00:50:52;;;;;;;31.42;13.25;;;;;;;-3.29;100.00;101340.25;5005566;28;20049;-77
2022/11/20 00:53:17;;;;;;;31.67;13.38;;;;;;;-3.33;100.00;101329.91;4986775;28;20088;-77
2022/11/20 00:55:42;;;;;;;34.17;12.98;;;;;;;-3.35;100.00;101331.53;5004602;28;20055;-77
2022/11/20 00:58:08;;;;;;;31.13;13.18;;;;;;;-3.39;100.00;101332.19;5005450;28;20040;-77
2022/11/20 01:00:34;;;;;;;32.10;12.98;;;;;;;-3.36;100.00;101339.94;5006712;28;20036;-77
2022/11/20 01:02:59;;;;;;;32.33;13.43;;;;;;;-3.33;100.00;101338.38;5004277;28;20144;-77
2022/11/20 01:05:24;;;;;;;33.08;13.65;;;;;;;-3.31;100.00;101333.38;5004743;28;20052;-76
2022/11/20 01:07:50;;;;;;;33.13;13.63;;;;;;;-3.34;100.00;101343.38;4989261;28;20037;-77
2022/11/20 01:10:15;;;;;;;29.40;12.82;;;;;;;-3.34;100.00;101349.31;5004332;28;20496;-77
2022/11/20 01:12:40;;;;;;;33.65;12.98;;;;;;;-3.37;100.00;101343.28;5001660;28;20055;-77
2022/11/20 01:15:06;;;;;;;33.90;13.73;;;;;;;-3.36;100.00;101353.47;5002926;28;20056;-77
2022/11/20 01:17:32;;;;;;;32.45;13.32;;;;;;;-3.36;100.00;101345.00;5003521;28;20045;-77
2022/11/20 01:19:57;;;;;;;35.42;14.43;;;;;;;-3.38;100.00;101350.00;5002827;28;20546;-76
2022/11/20 01:22:23;;;;;;;33.88;13.88;;;;;;;-3.40;100.00;101348.19;5000688;28;20036;-76
2022/11/20 01:24:48;;;;;;;33.92;13.90;;;;;;;-3.40;100.00;101340.59;5001755;28;20021;-76
2022/11/20 01:27:13;;;;;;;32.83;14.65;;;;;;;-3.42;100.00;101345.63;5000462;28;20038;-76
2022/11/20 01:29:39;;;;;;;34.15;13.93;;;;;;;-3.42;100.00;101350.69;5002179;28;20057;-76
2022/11/20 01:32:04;;;;;;;31.40;13.50;;;;;;;-3.44;100.00;101346.34;5001226;28;20030;-76
2022/11/20 01:34:29;;;;;;;30.48;13.95;;;;;;;-3.43;100.00;101343.03;5000953;28;20032;-76
2022/11/20 01:36:55;;;;;;;33.35;13.90;;;;;;;-3.46;100.00;101338.69;5001531;28;20026;-76
2022/11/20 01:39:25;;;;;;;36.70;14.45;;;;;;;-3.47;100.00;101342.00;5002385;28;20014;-76
2022/11/20 01:44:50;;;;;;;36.10;13.90;;;;;;;-3.48;100.00;101331.84;5005287;28;20045;-76
2022/11/20 01:47:23;;;;;;;37.50;14.40;;;;;;;-3.50;100.00;101341.03;5005176;28;20030;-76
2022/11/20 01:50:24;;;;;;;34.72;14.20;;;;;;;-3.48;100.00;101349.59;5010300;28;20026;-74
2022/11/20 01:52:58;;;;;;;35.10;14.32;;;;;;;-3.49;100.00;101342.78;4990359;28;20052;-74
2022/11/20 01:55:30;;;;;;;34.65;14.50;;;;;;;-3.49;100.00;101330.97;5009272;28;20026;-74
2022/11/20 01:57:56;;;;;;;35.67;14.90;;;;;;;-3.50;100.00;101344.44;5003333;28;20033;-74
2022/11/20 02:00:21;;;;;;;34.22;13.80;;;;;;;-3.52;100.00;101335.03;5011832;28;20020;-74
2022/11/20 02:03:00;;;;;;;36.80;14.88;;;;;;;-3.52;100.00;101338.44;4990508;28;20069;-74
2022/11/20 02:05:35;;;;;;;33.28;14.02;;;;;;;-3.54;100.00;101329.91;5011302;28;20041;-74
2022/11/20 02:08:02;;;;;;;39.55;14.80;;;;;;;-3.56;100.00;101336.59;5009733;28;20033;-74
2022/11/20 02:10:29;;;;;;;35.78;14.88;;;;;;;-3.57;100.00;101334.88;5014049;28;20029;-74
2022/11/20 02:15:40;;;;;;;36.40;14.80;;;;;;;-3.58;100.00;101339.06;5011352;28;20061;-74
2022/11/20 02:18:05;;;;;;;37.63;14.63;;;;;;;-3.59;100.00;101336.47;5010479;28;20545;-74
2022/11/20 02:20:31;;;;;;;35.35;14.00;;;;;;;-3.56;100.00;101335.72;5008836;28;20132;-76
2022/11/20 02:23:02;;;;;;;31.42;14.48;;;;;;;-3.62;100.00;101324.53;4985816;28;20018;-76
2022/11/20 02:25:28;;;;;;;38.00;14.93;;;;;;;-3.62;100.00;101326.22;5006799;28;20395;-76
2022/11/20 02:27:54;;;;;;;36.22;14.43;;;;;;;-3.63;100.00;101324.47;5008439;28;20026;-76
2022/11/20 02:30:19;;;;;;;33.22;14.35;;;;;;;-3.65;100.00;101323.53;5008905;28;20048;-76
2022/11/20 02:32:45;;;;;;;36.15;14.93;;;;;;;-3.68;100.00;101315.81;5009054;28;20033;-76
2022/11/20 02:35:30;;;;;;;33.88;14.63;;;;;;;-3.67;100.00;101320.06;5009375;28;20037;-75
2022/11/20 02:38:01;;;;;;;34.75;14.13;;;;;;;-3.70;100.00;101310.69;5009570;28;20042;-76
2022/11/20 02:40:27;;;;;;;29.77;13.30;;;;;;;-3.71;100.00;101311.50;5007225;28;20021;-76
2022/11/20 02:42:54;;;;;;;33.85;14.35;;;;;;;-3.71;100.00;101313.16;5007119;28;20125;-75
2022/11/20 02:45:19;;;;;;;33.67;13.63;;;;;;;-3.73;100.00;101320.69;5010502;28;20024;-76
2022/11/20 02:47:44;;;;;;;35.47;14.05;;;;;;;-3.78;100.00;101319.66;5009682;28;20038;-76
2022/11/20 02:50:10;;;;;;;34.05;13.45;;;;;;;-3.77;100.00;101325.56;5006737;28;20558;-76
2022/11/20 02:52:35;;;;;;;34.67;14.45;;;;;;;-3.79;100.00;101325.50;5006239;28;20113;-76
2022/11/20 02:55:00;;;;;;;37.60;13.93;;;;;;;-3.82;100.00;101316.94;5007204;28;20037;-76
2022/11/20 02:57:26;;;;;;;33.83;13.85;;;;;;;-3.80;100.00;101325.44;5006921;28;20026;-76
2022/11/20 02:59:51;;;;;;;35.35;13.57;;;;;;;-3.81;100.00;101323.69;5014950;28;20065;-75
2022/11/20 03:02:16;;;;;;;33.40;13.77;;;;;;;-3.83;100.00;101318.59;5005620;28;20036;-75
2022/11/20 03:04:42;;;;;;;31.75;13.25;;;;;;;-3.85;100.00;101321.84;5009003;28;20463;-75
2022/11/20 03:07:08;;;;;;;32.88;13.70;;;;;;;-3.87;100.00;101314.19;5004601;28;20113;-75
2022/11/20 03:09:33;;;;;;;34.83;13.73;;;;;;;-3.87;100.00;101316.72;5007192;28;20026;-75
2022/11/20 03:11:59;;;;;;;38.53;14.10;;;;;;;-3.88;100.00;101314.13;5008514;28;20385;-75
2022/11/20 03:14:24;;;;;;;35.72;13.32;;;;;;;-3.88;100.00;101319.19;5007072;28;20121;-75
2022/11/20 03:16:49;;;;;;;36.67;14.55;;;;;;;-3.87;100.00;101310.78;5007796;28;20057;-75
2022/11/20 03:19:15;;;;;;;32.10;12.85;;;;;;;-3.88;100.00;101317.50;5008387;28;20028;-75
2022/11/20 03:21:40;;;;;;;30.33;13.65;;;;;;;-3.84;100.00;101316.00;5008909;28;20030;-75
2022/11/20 03:24:06;;;;;;;29.67;13.10;;;;;;;-3.76;100.00;101312.13;4982933;28;20037;-75
2022/11/20 03:26:31;;;;;;;35.13;14.10;;;;;;;-3.68;100.00;101303.13;5007830;28;20034;-75
2022/11/20 03:29:04;;;;;;;32.90;13.13;;;;;;;-3.57;100.00;101304.47;5009110;28;20084;-75
2022/11/20 03:31:33;;;;;;;31.73;13.23;;;;;;;-3.50;100.00;101292.91;5006158;28;20058;-76
2022/11/20 03:33:59;;;;;;;34.55;14.35;;;;;;;-3.41;100.00;101296.66;5006837;28;20030;-76
2022/11/20 03:36:26;;;;;;;36.75;14.73;;;;;;;-3.40;100.00;101278.13;5004855;28;20034;-75
2022/11/20 03:38:53;;;;;;;33.88;14.05;;;;;;;-3.44;100.00;101273.75;5007647;28;20029;-75
2022/11/20 03:41:30;;;;;;;33.00;13.35;;;;;;;-3.62;100.00;101273.84;4987555;28;20500;-75
2022/11/20 03:43:58;;;;;;;32.22;12.90;;;;;;;-3.73;100.00;101282.69;5007600;28;20026;-75
2022/11/20 03:46:24;;;;;;;33.33;13.10;;;;;;;-3.75;100.00;101286.84;5008788;28;20026;-75
2022/11/20 03:48:49;;;;;;;33.38;13.50;;;;;;;-3.77;100.00;101290.13;5008447;28;20079;-75
2022/11/20 03:51:17;;;;;;;31.42;14.02;;;;;;;-3.78;100.00;101279.13;5004725;28;20112;-75
2022/11/20 03:53:45;;;;;;;36.00;13.38;;;;;;;-3.78;100.00;101290.91;5003816;28;20262;-75
2022/11/20 03:56:12;;;;;;;32.47;12.27;;;;;;;-3.82;100.00;101287.38;5007307;28;20033;-76
2022/11/20 03:58:41;;;;;;;31.67;13.52;;;;;;;-3.85;100.00;101282.22;5008373;28;20607;-75
2022/11/20 04:01:07;;;;;;;32.30;13.57;;;;;;;-3.86;100.00;101288.06;5007856;28;20432;-75
2022/11/20 04:03:34;;;;;;;32.25;12.43;;;;;;;-3.88;100.00;101282.06;5006736;28;20505;-75
2022/11/20 04:06:11;;;;;;;35.80;13.25;;;;;;;-3.88;100.00;101269.41;5007790;28;20519;-75
2022/11/20 04:08:37;;;;;;;29.75;12.63;;;;;;;-3.86;100.00;101264.41;5005143;28;20030;-75
2022/11/20 04:11:13;;;;;;;35.17;13.27;;;;;;;-3.89;100.00;101256.72;5009055;28;20030;-75
2022/11/20 04:13:40;;;;;;;31.83;13.00;;;;;;;-3.86;100.00;101259.34;4991644;28;20447;-75
2022/11/20 04:16:07;;;;;;;29.80;12.88;;;;;;;-3.87;100.00;101262.69;5009220;28;20426;-75
2022/11/20 04:18:32;;;;;;;33.22;13.40;;;;;;;-3.90;100.00;101268.50;5008641;28;20029;-75
2022/11/20 04:20:59;;;;;;;32.85;13.07;;;;;;;-3.90;100.00;101272.69;5008124;28;20156;-75
2022/11/20 04:23:24;;;;;;;34.80;13.75;;;;;;;-3.92;100.00;101269.22;5006860;28;20083;-75
2022/11/20 04:25:49;;;;;;;33.85;12.90;;;;;;;-3.92;100.00;101266.69;5008132;28;20026;-75
2022/11/20 04:28:15;;;;;;;32.13;13.02;;;;;;;-3.97;100.00;101253.88;5006307;28;20396;-75
2022/11/20 04:30:40;;;;;;;34.55;13.52;;;;;;;-3.97;100.00;101261.47;5007815;28;20265;-75
2022/11/20 04:33:06;;;;;;;30.38;12.77;;;;;;;-3.98;100.00;101264.78;4989376;28;20523;-75
2022/11/20 04:35:35;;;;;;;30.10;12.80;;;;;;;-3.99;100.00;101258.00;5006295;28;20025;-75
2022/11/20 04:38:00;;;;;;;33.70;13.27;;;;;;;-4.04;100.00;101247.69;5008160;28;20460;-75
2022/11/20 04:40:25;;;;;;;30.33;12.00;;;;;;;-4.02;100.00;101252.78;5005165;28;20543;-75
2022/11/20 04:42:51;;;;;;;30.23;13.05;;;;;;;-4.03;100.00;101251.09;5007024;28;20041;-75
2022/11/20 04:45:16;;;;;;;31.42;13.27;;;;;;;-4.03;100.00;101257.00;5009592;28;20029;-75
2022/11/20 04:47:41;;;;;;;33.17;13.27;;;;;;;-4.07;100.00;101247.53;5007728;28;20061;-75
2022/11/20 04:50:07;;;;;;;31.23;12.48;;;;;;;-4.08;100.00;101257.59;5004736;28;20061;-74
2022/11/20 04:52:32;;;;;;;30.60;12.68;;;;;;;-4.09;100.00;101256.72;5007075;28;20026;-74
2022/11/20 04:54:58;;;;;;;33.72;13.27;;;;;;;-4.10;100.00;101257.56;5005911;28;20030;-74
2022/11/20 04:57:23;;;;;;;32.40;12.80;;;;;;;-4.19;100.00;101244.50;5008180;28;20080;-74
2022/11/20 04:59:48;;;;;;;32.20;13.43;;;;;;;-4.15;100.00;101250.53;5005059;28;20101;-74
2022/11/20 05:02:14;;;;;;;31.73;13.32;;;;;;;-4.14;100.00;101248.09;5009446;28;20468;-74
2022/11/20 05:04:39;;;;;;;32.95;12.82;;;;;;;-4.13;100.00;101251.50;5002959;28;20394;-74
2022/11/20 05:07:04;;;;;;;33.70;13.38;;;;;;;-4.12;100.00;101232.97;5005099;28;20103;-74
2022/11/20 05:09:30;;;;;;;32.15;13.20;;;;;;;-4.11;100.00;101239.78;5008326;28;20018;-74
2022/11/20 05:11:55;;;;;;;36.65;14.30;;;;;;;-4.12;100.00;101231.31;5004174;28;20061;-74
2022/11/20 05:14:21;;;;;;;33.25;14.00;;;;;;;-4.12;100.00;101230.44;5006922;28;20029;-74
2022/11/20 05:16:46;;;;;;;34.50;13.82;;;;;;;-4.16;100.00;101236.19;5010117;28;20391;-74
2022/11/20 05:19:11;;;;;;;33.30;13.05;;;;;;;-4.14;100.00;101243.03;5009182;28;20102;-73
2022/11/20 05:21:36;;;;;;;33.45;14.45;;;;;;;-4.10;100.00;101237.31;5011559;28;20025;-74
2022/11/20 05:24:02;;;;;;;34.10;14.07;;;;;;;-4.10;100.00;101229.72;5010165;28;20092;-74
2022/11/20 05:26:27;;;;;;;30.70;13.18;;;;;;;-4.11;100.00;101227.13;5007801;28;20072;-74
2022/11/20 05:28:53;;;;;;;35.20;13.57;;;;;;;-4.05;100.00;101233.28;4992291;28;20022;-74
2022/11/20 05:31:21;;;;;;;34.63;13.70;;;;;;;-4.02;100.00;101225.81;5010995;28;20061;-74
2022/11/20 05:33:46;;;;;;;35.38;13.70;;;;;;;-4.02;100.00;101223.28;5009689;28;20064;-74
2022/11/20 05:36:14;;;;;;;34.95;13.98;;;;;;;-4.03;100.00;101231.69;5009662;28;20062;-74
2022/11/20 05:38:40;;;;;;;31.95;12.90;;;;;;;-4.04;100.00;101224.03;4994118;28;20024;-74
2022/11/20 05:41:08;;;;;;;34.53;14.02;;;;;;;-4.06;100.00;101233.22;5009775;28;20090;-74
2022/11/20 05:43:35;;;;;;;32.70;13.48;;;;;;;-4.09;100.00;101225.50;5010317;28;20030;-74
2022/11/20 05:46:01;;;;;;;34.33;14.00;;;;;;;-4.10;100.00;101229.72;5009467;28;20488;-74
2022/11/20 05:48:26;;;;;;;33.55;13.80;;;;;;;-4.10;100.00;101233.91;5008643;28;20030;-74
2022/11/20 05:50:51;;;;;;;31.90;13.40;;;;;;;-4.09;100.00;101225.50;5011193;28;20377;-74
2022/11/20 05:53:17;;;;;;;35.20;13.57;;;;;;;-4.03;100.00;101235.91;5010055;28;20400;-74
2022/11/20 05:55:42;;;;;;;36.28;14.35;;;;;;;-3.98;100.00;101234.41;5011787;28;20499;-74
2022/11/20 05:58:07;;;;;;;38.25;14.95;;;;;;;-3.91;100.00;101231.31;5009539;28;20368;-74
2022/11/20 06:00:33;;;;;;;35.90;14.20;;;;;;;-3.85;100.00;101236.63;5011555;28;20113;-74
2022/11/20 06:02:58;;;;;;;38.20;14.52;;;;;;;-3.78;100.00;101242.81;5010249;28;20026;-74
2022/11/20 06:05:23;;;;;;;35.10;14.02;;;;;;;-3.74;100.00;101245.50;5008560;28;20065;-74
2022/11/20 06:07:49;;;;;;;34.33;13.98;;;;;;;-3.67;100.00;101247.50;5010786;28;20108;-74
2022/11/20 06:10:14;;;;;;;38.03;14.60;;;;;;;-3.62;100.00;101243.47;5010363;28;20033;-74
2022/11/20 06:12:39;;;;;;;39.47;14.95;;;;;;;-3.55;100.00;101247.13;5011875;28;20463;-74
2022/11/20 06:15:06;;;;;;;35.13;14.10;;;;;;;-3.48;100.00;101253.31;5007835;28;20026;-74
2022/11/20 06:17:31;;;;;;;37.83;14.30;;;;;;;-3.44;100.00;101252.59;5010313;28;20719;-74
2022/11/20 06:19:56;;;;;;;35.15;14.73;;;;;;;-3.43;100.00;101249.28;5008745;28;20476;-74
2022/11/20 06:22:22;;;;;;;35.55;14.40;;;;;;;-3.39;100.00;101249.44;5010112;28;20160;-74
2022/11/20 06:24:47;;;;;;;36.67;15.60;;;;;;;-3.39;100.00;101257.03;5009707;28;20112;-74
2022/11/20 06:27:13;;;;;;;37.38;14.88;;;;;;;-3.38;100.00;101255.38;4990621;28;20075;-74
2022/11/20 06:29:38;;;;;;;33.63;14.60;;;;;;;-3.37;100.00;101250.38;5010564;28;20034;-74
2022/11/20 06:32:03;;;;;;;35.83;15.20;;;;;;;-3.29;100.00;101253.22;5010205;28;20030;-74
2022/11/20 06:34:29;;;;;;;36.67;14.73;;;;;;;-3.24;100.00;101249.16;5008793;28;20036;-74
2022/11/20 06:36:54;;;;;;;38.05;15.15;;;;;;;-3.21;100.00;101236.63;5010688;28;20184;-74
2022/11/20 06:39:19;;;;;;;38.35;15.35;;;;;;;-3.17;100.00;101237.59;5007988;28;20033;-74
2022/11/20 06:41:45;;;;;;;40.15;14.60;;;;;;;-3.15;100.00;101241.06;5009596;28;20022;-74
2022/11/20 06:44:10;;;;;;;37.92;14.82;;;;;;;-3.17;100.00;101245.19;5009311;28;20034;-74
2022/11/20 06:46:35;;;;;;;38.05;15.15;;;;;;;-3.14;100.00;101245.31;5008313;28;20134;-74
2022/11/20 06:49:01;;;;;;;34.92;14.63;;;;;;;-3.10;100.00;101244.63;4999834;28;20029;-75
2022/11/20 06:51:26;;;;;;;32.15;14.45;;;;;;;-3.08;100.00;101243.88;5003206;28;20022;-74
2022/11/20 06:53:51;;;;;;;37.28;14.85;;;;;;;-3.03;100.00;101237.31;5004481;28;20172;-74
2022/11/20 06:56:17;;;;;;;39.90;16.45;;;;;;;-2.96;100.00;101234.19;5004976;28;20104;-74
2022/11/20 06:58:42;;;;;;;34.35;14.93;;;;;;;-2.92;100.00;101223.34;5008871;28;20488;-74
2022/11/20 07:01:11;;;;;;;34.22;14.82;;;;;;;-2.91;100.00;101216.59;5009965;28;20026;-74
2022/11/20 07:03:37;;;;;;;40.53;15.30;;;;;;;-2.84;100.00;101221.09;5007785;28;20029;-74
2022/11/20 07:06:03;;;;;;;38.70;15.35;;;;;;;-2.81;100.00;101229.69;5004978;28;20088;-74
2022/11/20 07:08:30;;;;;;;35.28;15.10;;;;;;;-2.77;100.00;101228.13;5004540;28;20161;-74
2022/11/20 07:11:03;;;;;;;36.25;15.35;;;;;;;-2.76;100.00;101217.16;5005609;28;20030;-74
2022/11/20 07:13:29;;;;;;;40.60;16.10;;;;;;;-2.72;100.00;101225.72;5003009;28;20026;-74
2022/11/20 07:15:58;;;;;;;38.47;15.50;;;;;;;-2.71;100.00;101218.19;5004317;28;20056;-74
2022/11/20 07:18:23;;;;;;;37.53;15.98;;;;;;;-2.71;100.00;101214.78;5007617;28;20017;-74
2022/11/20 07:20:49;;;;;;;35.65;15.30;;;;;;;-2.68;100.00;101215.78;5009569;28;20121;-74
2022/11/20 07:23:14;;;;;;;35.58;15.20;;;;;;;-2.61;100.00;101221.91;5007834;28;20112;-75
2022/11/20 07:25:39;;;;;;;41.80;16.17;;;;;;;-2.55;100.00;101212.84;5010370;28;20075;-75
2022/11/20 07:28:05;;;;;;;38.63;15.73;;;;;;;-2.49;100.00;101210.53;5009650;28;20148;-75
2022/11/20 07:30:30;;;;;;;34.67;15.32;;;;;;;-2.45;100.00;101214.88;5010159;28;20064;-74
2022/11/20 07:32:56;;;;;;;37.53;15.52;;;;;;;-2.39;100.00;101219.31;5006063;28;20049;-74
2022/11/20 07:35:25;;;;;;;39.30;16.40;;;;;;;-2.32;100.00;101216.16;5003099;28;20041;-74
2022/11/20 07:37:51;;;;;;;41.55;15.52;;;;;;;-2.25;100.00;101210.47;5002877;28;20040;-74
2022/11/20 07:40:17;;;;;;;37.13;15.63;;;;;;;-2.17;100.00;101215.81;4986073;28;20026;-74
2022/11/20 07:42:53;;;;;;;37.92;15.98;;;;;;;-2.13;100.00;101212.59;5003135;28;20133;-74
2022/11/20 07:45:20;;;;;;;37.47;15.40;;;;;;;-2.08;100.00;101208.50;5001003;28;20104;-72
2022/11/20 07:47:45;;;;;;;36.58;16.05;;;;;;;-2.03;100.00;101209.53;5002802;28;20030;-71
2022/11/20 07:50:11;;;;;;;35.55;15.27;;;;;;;-1.96;100.00;101203.84;5005274;28;20041;-74
2022/11/20 07:52:37;;;;;;;39.10;16.85;;;;;;;-1.91;100.00;101207.38;5007590;28;20169;-74
2022/11/20 07:55:03;;;;;;;37.75;15.57;;;;;;;-1.89;100.00;101212.50;5008215;28;20509;-74
2022/11/20 07:57:28;;;;;;;39.17;16.23;;;;;;;-1.88;100.00;101215.09;5007437;28;20026;-74
2022/11/20 07:59:53;;;;;;;39.03;16.30;;;;;;;-1.87;100.00;101214.28;4990944;28;20073;-76
2022/11/20 08:02:18;;;;;;;35.58;15.77;;;;;;;-1.85;100.00;101216.91;5005865;28;20061;-76
2022/11/20 08:04:44;;;;;;;33.92;15.50;;;;;;;-1.81;100.00;101222.13;5007833;28;20056;-76
2022/11/20 08:07:09;;;;;;;38.03;15.70;;;;;;;-1.74;100.00;101223.16;5002222;28;20068;-76
2022/11/20 08:09:34;;;;;;;35.10;15.95;;;;;;;-1.70;100.00;101218.22;5005954;28;20091;-76
2022/11/20 08:14:43;;;;;;;40.10;16.25;;;;;;;-1.56;100.00;101211.03;5008135;28;20036;-76
2022/11/20 08:17:09;;;;;;;35.50;15.52;;;;;;;-1.46;100.00;101202.03;5007081;28;20034;-76
2022/11/20 08:19:34;;;;;;;38.42;15.95;;;;;;;-1.34;100.00;101202.38;5008191;28;20030;-76
2022/11/20 08:22:00;;;;;;;36.05;15.95;;;;;;;-1.24;100.00;101196.78;5008961;28;20037;-76
2022/11/20 08:24:26;;;;;;;36.22;15.20;;;;;;;-1.10;100.00;101197.19;5009145;28;20488;-77
2022/11/20 08:26:51;;;;;;;36.58;16.10;;;;;;;-1.00;100.00;101200.03;5010293;28;20488;-77
2022/11/20 08:29:17;;;;;;;40.42;16.70;;;;;;;-0.90;100.00;101193.53;5006297;28;20052;-76
2022/11/20 08:31:42;;;;;;;37.47;15.80;;;;;;;-0.82;100.00;101184.44;5004369;28;20029;-77
2022/11/20 08:34:08;;;;;;;40.50;15.98;;;;;;;-0.75;100.00;101185.47;5008433;28;20110;-77
2022/11/20 08:36:34;;;;;;;38.35;16.73;;;;;;;-0.70;100.00;101196.63;5007739;28;20022;-76
2022/11/20 08:39:00;;;;;;;38.65;16.10;;;;;;;-0.68;100.00;101193.28;5004839;28;20522;-77
2022/11/20 08:41:30;;;;;;;35.60;15.77;;;;;;;-0.63;100.00;101198.50;5007997;28;20030;-76
2022/11/20 08:43:58;;;;;;;39.38;16.95;;;;;;;-0.60;100.00;101196.91;4990018;28;20083;-77
2022/11/20 08:46:25;;;;;;;36.78;16.63;;;;;;;-0.55;100.00;101195.34;5009579;28;20117;-77
2022/11/20 08:48:50;;;;;;;39.90;16.88;;;;;;;-0.49;100.00;101209.94;5007427;28;20461;-77
2022/11/20 08:51:16;;;;;;;44.03;17.20;;;;;;;-0.47;100.00;101198.94;5008007;28;20104;-77
2022/11/20 08:53:42;;;;;;;37.83;16.88;;;;;;;-0.38;100.00;101195.78;5009110;28;20034;-77
2022/11/20 08:56:09;;;;;;;40.70;17.10;;;;;;;-0.34;100.00;101192.47;5008898;28;20026;-77
2022/11/20 08:58:35;;;;;;;38.15;16.98;;;;;;;-0.27;100.00;101194.38;5018663;28;20032;-77
2022/11/20 09:01:01;;;;;;;38.33;16.60;;;;;;;-0.19;100.00;101199.66;4992885;28;20120;-77
2022/11/20 09:03:27;;;;;;;38.30;17.33;;;;;;;-0.11;100.00;101195.63;5009653;28;20482;-77
2022/11/20 09:06:00;;;;;;;35.70;16.75;;;;;;;-0.03;100.00;101195.00;5008632;28;20062;-77
2022/11/20 09:08:26;;;;;;;38.97;17.60;;;;;;;0.04;100.00;101187.50;5001896;28;20101;-77
2022/11/20 09:10:53;;;;;;;41.25;18.30;;;;;;;0.12;100.00;101188.56;5008225;28;20030;-76
2022/11/20 09:13:19;;;;;;;39.38;17.48;;;;;;;0.20;100.00;101180.28;5004508;28;20029;-76
2022/11/20 09:15:45;;;;;;;41.53;18.27;;;;;;;0.30;100.00;101181.34;5000846;28;20057;-75
2022/11/20 09:18:10;;;;;;;37.92;16.80;;;;;;;0.36;100.00;101173.81;5007188;28;20025;-76
2022/11/20 09:20:35;;;;;;;35.17;16.58;;;;;;;0.45;100.00;101176.59;5005673;28;20045;-76
2022/11/20 09:23:01;;;;;;;39.28;17.92;;;;;;;0.48;100.00;101169.00;5007145;28;20113;-76
2022/11/20 09:25:26;;;;;;;39.70;18.33;;;;;;;0.51;100.00;101179.28;5002731;28;20064;-76
2022/11/20 09:27:59;;;;;;;39.10;17.35;;;;;;;0.56;100.00;101172.56;5008760;28;20585;-76
2022/11/20 09:30:25;;;;;;;37.45;17.23;;;;;;;0.62;100.00;101171.84;5007688;28;20044;-74
2022/11/20 09:32:51;;;;;;;39.55;17.60;;;;;;;0.63;100.00;101169.34;4999498;28;20080;-74
2022/11/20 09:35:17;;;;;;;43.70;19.35;;;;;;;0.66;100.00;101166.00;5006976;28;20065;-74
2022/11/20 09:37:43;;;;;;;38.63;17.77;;;;;;;0.67;100.00;101157.53;5009605;28;20097;-75
2022/11/20 09:40:21;;;;;;;38.25;18.38;;;;;;;0.73;100.00;101160.19;5005065;28;20101;-75
2022/11/20 09:42:57;;;;;;;38.42;18.13;;;;;;;0.79;100.00;101156.09;5006122;28;20491;-74
2022/11/20 09:45:41;;;;;;;39.38;18.08;;;;;;;0.87;100.00;101156.25;5004518;28;20110;-78
2022/11/20 09:48:17;;;;;;;41.30;18.17;;;;;;;0.93;100.00;101145.28;5002797;28;20129;-78
2022/11/20 09:50:52;;;;;;;40.83;18.67;;;;;;;0.96;100.00;101140.25;5006026;28;20315;-78
2022/11/20 09:53:33;;;;;;;44.33;19.20;;;;;;;1.05;100.00;101145.53;5005877;28;20029;-78
2022/11/20 09:56:02;;;;;;;46.20;18.67;;;;;;;1.10;100.00;101141.38;5005986;28;20634;-79
2022/11/20 09:58:41;;;;;;;39.28;18.55;;;;;;;1.14;100.00;101145.72;5002875;28;20034;-78
2022/11/20 10:01:14;;;;;;;37.40;17.77;;;;;;;1.17;100.00;101145.75;5000110;28;20034;-78
2022/11/20 10:03:58;;;;;;;43.63;19.77;;;;;;;1.19;100.00;101147.53;5009943;28;20026;-78
2022/11/20 10:06:30;;;;;;;43.17;18.88;;;;;;;1.22;100.00;101141.63;5009271;28;20053;-79
2022/11/20 10:09:12;;;;;;;43.47;18.70;;;;;;;1.21;100.00;101137.34;5008447;28;20033;-79
2022/11/20 10:11:43;;;;;;;42.35;19.20;;;;;;;1.24;100.00;101133.97;5006277;28;20490;-79
2022/11/20 10:14:30;;;;;;;41.22;19.45;;;;;;;1.28;100.00;101125.56;5004225;28;20044;-79
2022/11/20 10:17:18;;;;;;;41.40;19.25;;;;;;;1.41;100.00;101120.69;5016973;28;20022;-79
2022/11/20 10:20:28;;;;;;;45.85;18.80;;;;;;;1.53;100.00;101117.50;5011452;28;20036;-80
2022/11/20 10:23:31;;;;;;;43.80;18.45;;;;;;;1.61;100.00;101107.41;4994265;28;20048;-78
2022/11/20 10:26:24;;;;;;;43.72;18.77;;;;;;;1.61;100.00;101100.59;5000221;28;20045;-78
2022/11/20 10:29:13;;;;;;;43.08;19.50;;;;;;;1.67;100.00;101084.50;4976717;28;20042;-79
2022/11/20 10:31:46;;;;;;;43.20;19.05;;;;;;;1.69;100.00;101076.06;5005942;28;20036;-79
2022/11/20 10:34:18;;;;;;;42.67;19.70;;;;;;;1.74;100.00;101065.91;5007195;28;20025;-79
2022/11/20 10:36:50;;;;;;;46.50;20.27;;;;;;;1.78;100.00;101057.41;5009695;28;20496;-79
2022/11/20 10:39:25;;;;;;;38.00;18.17;;;;;;;1.82;100.00;101059.22;5007897;28;20026;-79
2022/11/20 10:41:53;;;;;;;43.25;19.90;;;;;;;1.86;100.00;101053.28;5005318;28;20109;-79
2022/11/20 10:47:18;;;;;;;43.60;19.25;;;;;;;1.94;100.00;101023.59;5007666;28;20068;-79
2022/11/20 10:49:47;;;;;;;40.47;18.60;;;;;;;1.99;100.00;101027.94;5010159;28;20026;-80
2022/11/20 10:52:25;;;;;;;45.83;19.63;;;;;;;2.11;100.00;101013.63;5011242;28;20037;-80
2022/11/20 10:54:59;;;;;;;40.97;19.00;;;;;;;2.24;100.00;101010.38;5013027;28;20044;-80
2022/11/20 10:57:31;;;;;;;;;;;;;;;2.41;100.00;101002.91;4996025;28;20025;-80
2022/11/20 11:00:06;;;;;;;39.45;17.80;;;;;;;2.48;100.00;101003.00;5006598;28;19917;-80
2022/11/20 11:02:49;;;;;;;42.20;19.00;;;;;;;2.55;100.00;101003.91;5013452;28;20554;-80
2022/11/20 11:05:20;;;;;;;43.20;18.55;;;;;;;2.64;100.00;101002.34;5009584;28;20072;-80
2022/11/20 11:07:49;;;;;;;46.10;20.02;;;;;;;2.70;100.00;100993.88;5008807;28;20104;-80
2022/11/20 11:10:18;;;;;;;42.90;19.20;;;;;;;2.75;100.00;100989.63;5010114;28;20415;-80
2022/11/20 11:12:46;;;;;;;44.50;19.88;;;;;;;2.81;100.00;100987.13;5009409;28;20037;-80
2022/11/20 11:15:27;;;;;;;48.95;19.98;;;;;;;2.83;100.00;100976.91;5013275;28;20039;-80
2022/11/20 11:17:53;;;;;;;47.30;19.33;;;;;;;2.83;100.00;100982.91;5009032;28;20096;-81
2022/11/20 11:20:21;;;;;;;51.53;20.85;;;;;;;2.82;100.00;100985.44;5005994;28;20029;-80